MET'MAP v2.0
soon released !

Expected late october,
this new version will be
more efficient, smarter,
and hosted on a brand new
server x3 powerfull...
...and still free !


Not compatible ?
Try the mobile version !

LOG IN : | Subscribe | Disclaimer | Who is Orbifly ? |
ICAO code :

TAF - EDHK Holtenau - 02 Apr 2020 16:37 UTC - Data Source NOAA   


- Airport Elevation : 102 ft
- IATA code : KEL
- No reported NOTAMs.


EDHK - Holtenau

Latest METAR recorded : 2015/08/11 07:50 EDHK 110750Z VRB02KT 9999 FEW011 21/17 Q1017
TAF TAF EDHK
Valid from the 02 at 12:00 until the 02 at 18:00 UTC


021100Z 0212/0218 25015G25KT 9999 BKN030
TEMPO 0212/0218 26020G35KT

Source NOAA


MET'MAP, your aeronautical weather chart ! - Copyright ORBIFLY December 2007

Programming & Development : Alexandra Zaïnal
Co-Developer : Marc-Olivier Méhu
Technical & hardware support : Manuel Goepfert
Concept & Financing : Baudouin d'Aumeries